Time;durP1;ratioP1;P1;durP2;ratioP2;P2;SDS_P1;SDS_P2;PMS_P1;PMS_P2;Temp;Humidity;BMP_temperature;BMP_pressure;BME280_temperature;BME280_humidity;BME280_pressure;Samples;Min_cycle;Max_cycle;Signal;HPM_P1;HPM_P2
2022/01/25 00:24:22;;;;;;;4.70;1.93;;;4.80;99.90;;;;;;5045532;28;20192;-69
2022/01/25 00:27:07;;;;;;;2.57;1.80;;;4.70;99.90;;;;;;5076207;28;20260;-67
2022/01/25 00:29:59;;;;;;;3.50;2.07;;;4.60;99.90;;;;;;5026260;28;20968;-67
2022/01/25 00:32:21;;;;;;;4.90;2.03;;;4.60;99.90;;;;;;5060437;28;20199;-68
2022/01/25 00:34:49;;;;;;;1.77;1.50;;;4.50;99.90;;;;;;5042515;28;20205;-68
2022/01/25 00:37:15;;;;;;;3.10;2.57;;;4.40;99.90;;;;;;5043586;28;20219;-68
2022/01/25 00:39:42;;;;;;;4.67;2.27;;;4.40;99.90;;;;;;5037589;28;20278;-69
2022/01/25 00:42:10;;;;;;;2.27;1.80;;;4.40;99.90;;;;;;5041584;28;20219;-69
2022/01/25 00:44:39;;;;;;;2.00;1.60;;;4.30;99.90;;;;;;5075795;28;20219;-68
2022/01/25 00:47:07;;;;;;;2.87;2.07;;;4.30;99.90;;;;;;5039247;28;20196;-67
2022/01/25 00:49:40;;;;;;;2.53;1.80;;;4.30;99.90;;;;;;5044238;28;20223;-67
2022/01/25 00:52:22;;;;;;;2.07;1.50;;;4.30;99.90;;;;;;5045058;28;20196;-70
2022/01/25 00:54:51;;;;;;;2.33;1.60;;;4.30;99.90;;;;;;5045641;28;20981;-68
2022/01/25 00:57:19;;;;;;;2.13;1.43;;;4.30;99.90;;;;;;5043134;28;20282;-69
2022/01/25 00:59:47;;;;;;;3.47;1.57;;;4.40;99.90;;;;;;5041709;28;20276;-67
2022/01/25 01:02:16;;;;;;;2.17;1.50;;;4.40;99.90;;;;;;5050230;28;20218;-69
2022/01/25 01:04:43;;;;;;;1.80;1.40;;;4.50;99.90;;;;;;5045689;28;20587;-67
2022/01/25 01:07:15;;;;;;;1.50;1.40;;;4.50;99.90;;;;;;5047936;28;20278;-70
2022/01/25 01:09:47;;;;;;;2.60;1.87;;;4.60;99.90;;;;;;5047707;28;20183;-68
2022/01/25 01:12:34;;;;;;;3.00;1.73;;;4.60;99.90;;;;;;5045199;28;20822;-67
2022/01/25 01:31:24;;;;;;;2.40;1.70;;;4.50;99.90;;;;;;5049452;28;20211;-69
2022/01/25 01:48:33;;;;;;;6.37;1.50;;;4.70;99.90;;;;;;5096170;27;20571;-70
2022/01/25 01:51:15;;;;;;;3.70;1.47;;;4.10;99.90;;;;;;5053133;28;20202;-70
2022/01/25 01:53:43;;;;;;;3.37;1.20;;;4.10;99.90;;;;;;5041224;28;20182;-70
2022/01/25 01:56:13;;;;;;;10.37;1.20;;;4.10;99.90;;;;;;5077998;28;20252;-67
2022/01/25 01:58:40;;;;;;;2.43;1.33;;;4.20;99.90;;;;;;5056914;28;20194;-67
2022/01/25 02:01:13;;;;;;;6.87;1.10;;;4.00;99.90;;;;;;5062729;28;20374;-67
2022/01/25 02:03:40;;;;;;;3.90;1.20;;;3.80;99.90;;;;;;5082818;28;20560;-68
2022/01/25 02:06:06;;;;;;;7.73;0.77;;;3.70;99.90;;;;;;5053851;28;20243;-68
2022/01/25 02:08:34;;;;;;;2.27;0.53;;;3.70;99.90;;;;;;5053837;28;20190;-68
2022/01/25 02:11:04;;;;;;;1.20;0.57;;;3.90;99.90;;;;;;5057661;28;20191;-68
2022/01/25 02:13:31;;;;;;;2.27;0.57;;;4.10;99.90;;;;;;5043320;28;20187;-68
2022/01/25 02:16:02;;;;;;;2.20;0.80;;;4.30;99.90;;;;;;5077887;28;20215;-68
2022/01/25 02:23:57;;;;;;;4.00;0.73;;;4.40;99.90;;;;;;5073036;28;20985;-70
2022/01/25 02:26:24;;;;;;;3.27;1.00;;;4.50;99.90;;;;;;5080718;28;20228;-68
2022/01/25 02:28:50;;;;;;;5.37;1.07;;;4.60;99.90;;;;;;5061431;28;20255;-69
2022/01/25 02:31:17;;;;;;;3.67;1.10;;;4.60;99.90;;;;;;5040207;28;20270;-71
2022/01/25 02:33:44;;;;;;;3.53;1.30;;;4.70;99.90;;;;;;5060311;28;20190;-70
2022/01/25 02:36:26;;;;;;;1.70;0.93;;;4.80;99.90;;;;;;5072718;28;20202;-70
2022/01/25 02:38:53;;;;;;;2.37;1.07;;;4.80;99.90;;;;;;5054154;28;20210;-71
2022/01/25 02:41:19;;;;;;;8.60;1.50;;;4.80;99.90;;;;;;5067365;28;20918;-69
2022/01/25 02:43:47;;;;;;;3.70;1.33;;;4.70;99.90;;;;;;5041621;28;20187;-67
2022/01/25 02:49:08;;;;;;;4.07;1.30;;;4.80;99.90;;;;;;5029751;28;20205;-70
2022/01/25 02:51:44;;;;;;;4.00;1.20;;;4.90;99.90;;;;;;5046519;28;20329;-68
2022/01/25 02:54:12;;;;;;;5.20;1.80;;;5.10;99.90;;;;;;5044553;28;20206;-69
2022/01/25 02:56:42;;;;;;;8.03;1.70;;;5.20;99.90;;;;;;5046409;28;20251;-69
2022/01/25 02:59:11;;;;;;;6.93;1.80;;;5.30;99.90;;;;;;5044608;28;20191;-69
2022/01/25 03:01:39;;;;;;;12.40;1.70;;;5.40;99.90;;;;;;5044218;28;20525;-69
2022/01/25 03:04:08;;;;;;;11.43;2.30;;;5.50;99.90;;;;;;5022690;28;20196;-69
2022/01/25 03:06:34;;;;;;;7.37;2.23;;;5.50;99.90;;;;;;5046571;28;20214;-69
2022/01/25 03:09:03;;;;;;;8.23;1.83;;;5.50;99.90;;;;;;5027909;28;20278;-69
2022/01/25 03:11:30;;;;;;;9.17;2.33;;;5.50;99.90;;;;;;5012179;28;20188;-71
2022/01/25 03:14:00;;;;;;;7.30;1.80;;;5.50;99.90;;;;;;5045326;28;20670;-69
2022/01/25 03:16:37;;;;;;;10.50;1.90;;;5.50;99.90;;;;;;5018862;28;20212;-68
2022/01/25 03:22:00;;;;;;;8.07;2.20;;;5.60;99.90;;;;;;5047126;28;20671;-69
2022/01/25 03:24:27;;;;;;;11.50;2.10;;;5.60;99.90;;;;;;5029464;28;20206;-68
2022/01/25 03:26:53;;;;;;;5.50;1.90;;;5.70;99.90;;;;;;5010870;28;20191;-68
2022/01/25 03:29:19;;;;;;;9.10;1.67;;;5.80;99.90;;;;;;5045675;28;20199;-68
2022/01/25 03:31:46;;;;;;;5.93;1.50;;;5.80;99.90;;;;;;5045159;28;20187;-69
2022/01/25 03:34:12;;;;;;;6.40;1.53;;;5.90;99.90;;;;;;5045054;28;20217;-69
2022/01/25 03:36:38;;;;;;;5.67;1.60;;;5.90;99.90;;;;;;5043226;28;20215;-68
2022/01/25 03:39:06;;;;;;;5.00;1.47;;;5.90;99.90;;;;;;5042289;28;20211;-68
2022/01/25 03:41:35;;;;;;;8.07;1.67;;;5.90;99.90;;;;;;5045721;28;20178;-68
2022/01/25 03:44:03;;;;;;;3.13;1.60;;;5.90;99.90;;;;;;5046441;28;20223;-68
2022/01/25 03:46:56;;;;;;;6.20;1.40;;;5.90;99.90;;;;;;5041742;28;20218;-68
2022/01/25 03:52:08;;;;;;;6.60;1.60;;;5.80;99.90;;;;;;5020994;28;20195;-68
2022/01/25 03:54:35;;;;;;;4.23;1.40;;;5.80;99.90;;;;;;5045654;28;20218;-68
2022/01/25 03:57:01;;;;;;;6.00;1.70;;;5.90;99.90;;;;;;5025031;28;20215;-68
2022/01/25 03:59:29;;;;;;;10.67;1.73;;;5.90;99.90;;;;;;5025540;28;20192;-68
2022/01/25 04:01:55;;;;;;;5.83;1.40;;;6.00;99.90;;;;;;5045634;28;20205;-68
2022/01/25 04:04:24;;;;;;;7.40;1.77;;;6.00;99.90;;;;;;5027687;28;20668;-68
2022/01/25 04:06:53;;;;;;;10.37;2.00;;;6.00;99.90;;;;;;5044242;28;20191;-68
2022/01/25 04:09:21;;;;;;;12.47;1.70;;;6.00;99.90;;;;;;5026964;28;20670;-68
2022/01/25 04:11:47;;;;;;;7.40;1.70;;;6.00;99.90;;;;;;5027634;28;20183;-68
2022/01/25 04:14:14;;;;;;;6.70;1.67;;;6.00;99.90;;;;;;5045416;28;20245;-69
2022/01/25 04:17:03;;;;;;;9.27;1.67;;;5.90;99.90;;;;;;5024596;28;20208;-69
2022/01/25 04:19:37;;;;;;;4.97;1.60;;;5.90;99.90;;;;;;5019912;28;20195;-68
2022/01/25 04:27:24;;;;;;;3.00;1.33;;;5.90;99.90;;;;;;5013645;28;20357;-69
2022/01/25 04:29:52;;;;;;;13.03;1.83;;;5.90;99.90;;;;;;5026418;28;20187;-68
2022/01/25 04:32:23;;;;;;;3.67;1.27;;;5.90;99.90;;;;;;5044181;28;20249;-68
2022/01/25 04:48:58;;;;;;;4.27;1.33;;;5.90;99.90;;;;;;5037626;28;20188;-69
2022/01/25 04:54:04;;;;;;;4.60;1.23;;;5.90;99.90;;;;;;5042812;28;20257;-69
2022/01/25 04:59:09;;;;;;;3.67;1.43;;;5.80;99.90;;;;;;5050755;28;20206;-69
2022/01/25 05:01:36;;;;;;;8.83;1.53;;;5.80;99.90;;;;;;5026119;28;20187;-69
2022/01/25 05:04:08;;;;;;;2.37;1.50;;;5.80;99.90;;;;;;5051848;28;20714;-69
2022/01/25 05:06:35;;;;;;;8.30;1.80;;;5.90;99.90;;;;;;5039755;28;20240;-69
2022/01/25 05:09:10;;;;;;;4.17;1.50;;;5.80;99.90;;;;;;5043827;28;20202;-69
2022/01/25 05:11:42;;;;;;;4.07;1.67;;;5.90;99.90;;;;;;5044025;28;20187;-69
2022/01/25 05:14:17;;;;;;;2.20;1.20;;;5.90;99.90;;;;;;5010796;28;20513;-69
2022/01/25 05:17:04;;;;;;;4.13;1.40;;;5.80;99.90;;;;;;5024309;28;20925;-69
2022/01/25 05:22:12;;;;;;;4.53;1.40;;;5.90;99.90;;;;;;5034937;28;20298;-68
2022/01/25 05:24:44;;;;;;;3.07;1.50;;;5.90;99.90;;;;;;5042786;28;20179;-68
2022/01/25 05:27:15;;;;;;;3.60;1.23;;;5.90;99.90;;;;;;5043587;28;20217;-69
2022/01/25 05:29:41;;;;;;;3.60;1.23;;;5.90;99.90;;;;;;5009625;28;20304;-68
2022/01/25 05:32:08;;;;;;;12.27;1.57;;;5.90;99.90;;;;;;5008840;28;20194;-68
2022/01/25 05:34:35;;;;;;;6.20;1.23;;;5.90;99.90;;;;;;5025438;28;20298;-68
2022/01/25 05:37:03;;;;;;;4.67;1.20;;;5.90;99.90;;;;;;5029928;28;20318;-69
2022/01/25 05:39:33;;;;;;;4.87;1.47;;;5.90;99.90;;;;;;5035701;28;20698;-69
2022/01/25 05:47:28;;;;;;;1.30;1.17;;;6.00;99.90;;;;;;5048941;28;20204;-68
2022/01/25 05:49:55;;;;;;;2.63;1.47;;;6.00;99.90;;;;;;5045315;28;20190;-68
2022/01/25 05:52:22;;;;;;;13.40;1.70;;;6.00;99.90;;;;;;5025872;28;21025;-68
2022/01/25 05:54:48;;;;;;;7.77;1.70;;;6.00;99.90;;;;;;5044441;28;20847;-68
2022/01/25 05:57:15;;;;;;;5.40;1.50;;;6.00;99.90;;;;;;5049374;28;20210;-68
2022/01/25 05:59:42;;;;;;;2.63;1.33;;;6.10;99.90;;;;;;5042064;28;20199;-69
2022/01/25 06:02:08;;;;;;;3.50;1.47;;;6.10;99.90;;;;;;5040915;28;20200;-69
2022/01/25 06:04:34;;;;;;;3.60;1.50;;;6.10;99.90;;;;;;5043959;28;20200;-69
2022/01/25 06:07:01;;;;;;;1.50;1.23;;;6.10;99.90;;;;;;5008001;28;20325;-68
2022/01/25 06:09:27;;;;;;;5.13;1.57;;;6.10;99.90;;;;;;5022424;28;20575;-68
2022/01/25 06:11:55;;;;;;;4.40;1.60;;;6.10;99.90;;;;;;5044090;28;21084;-69
2022/01/25 06:14:23;;;;;;;5.23;1.53;;;6.10;99.90;;;;;;5042750;28;20192;-69
2022/01/25 06:16:49;;;;;;;3.83;1.40;;;6.10;99.90;;;;;;5025929;28;20502;-69
2022/01/25 06:19:16;;;;;;;4.33;2.00;;;6.10;99.90;;;;;;5023283;28;20333;-70
2022/01/25 06:21:42;;;;;;;3.27;1.30;;;6.10;99.90;;;;;;5016481;28;20215;-70
2022/01/25 06:24:08;;;;;;;2.50;1.30;;;6.10;99.90;;;;;;5045819;28;20191;-69
2022/01/25 06:26:35;;;;;;;3.20;1.20;;;6.10;99.90;;;;;;5060471;28;20262;-69
2022/01/25 06:29:02;;;;;;;4.10;1.50;;;6.10;99.90;;;;;;5057113;28;20221;-69
2022/01/25 06:31:32;;;;;;;1.20;1.00;;;6.10;99.90;;;;;;5050874;28;20198;-70
2022/01/25 06:34:00;;;;;;;3.57;1.60;;;6.10;99.90;;;;;;5033947;28;20202;-69
2022/01/25 06:36:27;;;;;;;6.90;3.00;;;6.10;99.90;;;;;;5028928;28;20553;-69
2022/01/25 06:38:53;;;;;;;2.77;1.90;;;6.10;99.90;;;;;;5044547;28;20215;-69
2022/01/25 06:41:20;;;;;;;5.97;1.50;;;6.10;99.90;;;;;;5045902;28;20345;-69
2022/01/25 06:43:49;;;;;;;5.70;1.40;;;6.20;99.90;;;;;;5047022;28;20214;-69
2022/01/25 06:46:15;;;;;;;3.50;1.43;;;6.20;99.90;;;;;;5014764;28;20191;-69
2022/01/25 06:48:42;;;;;;;3.37;1.40;;;6.20;99.90;;;;;;5025269;28;20192;-69
2022/01/25 06:51:08;;;;;;;3.57;1.40;;;6.30;99.90;;;;;;5042884;28;20191;-69
2022/01/25 06:53:36;;;;;;;2.87;1.37;;;6.30;99.90;;;;;;5047003;28;20190;-69
2022/01/25 06:56:04;;;;;;;5.27;1.43;;;6.30;99.90;;;;;;5048350;28;20210;-69
2022/01/25 06:58:31;;;;;;;2.00;1.30;;;6.30;99.90;;;;;;5035954;28;20206;-69
2022/01/25 07:00:58;;;;;;;6.93;1.40;;;6.20;99.90;;;;;;5028648;28;20229;-69
2022/01/25 07:03:26;;;;;;;4.10;1.30;;;6.30;99.90;;;;;;5027865;28;20191;-69
2022/01/25 07:05:53;;;;;;;2.37;1.20;;;6.20;99.90;;;;;;5011410;28;20682;-69
2022/01/25 07:08:19;;;;;;;1.87;0.97;;;6.30;99.90;;;;;;5046165;28;20291;-69
2022/01/25 07:10:47;;;;;;;4.40;1.20;;;6.30;99.90;;;;;;5046000;28;20269;-69
2022/01/25 07:13:15;;;;;;;2.57;1.00;;;6.30;99.90;;;;;;5027538;28;20715;-69
2022/01/25 07:15:47;;;;;;;4.07;1.03;;;6.30;99.90;;;;;;5030529;28;20191;-69
2022/01/25 07:18:15;;;;;;;5.73;1.30;;;6.30;99.90;;;;;;5040531;28;20262;-69
2022/01/25 07:20:42;;;;;;;2.27;1.20;;;6.40;99.90;;;;;;5027531;28;20228;-69
2022/01/25 07:23:09;;;;;;;3.30;1.10;;;6.40;99.90;;;;;;5028737;28;20224;-69
2022/01/25 07:25:38;;;;;;;2.03;1.13;;;6.40;99.90;;;;;;5027451;28;20788;-69
2022/01/25 07:28:04;;;;;;;1.87;0.90;;;6.40;99.90;;;;;;5039809;28;20325;-69
2022/01/25 07:30:32;;;;;;;2.67;1.03;;;6.50;99.90;;;;;;5039952;28;20207;-69
2022/01/25 07:33:05;;;;;;;4.10;1.00;;;6.50;99.90;;;;;;5021804;28;20219;-69
2022/01/25 07:35:34;;;;;;;3.47;1.13;;;6.50;99.90;;;;;;5026258;28;20670;-69
2022/01/25 07:38:02;;;;;;;2.43;1.40;;;6.60;99.90;;;;;;5044804;28;20214;-69
2022/01/25 07:40:30;;;;;;;1.90;1.20;;;6.60;99.90;;;;;;5037701;28;20325;-69
2022/01/25 07:42:56;;;;;;;2.03;1.10;;;6.60;99.90;;;;;;5025372;28;20919;-69
2022/01/25 07:45:24;;;;;;;2.03;1.30;;;6.70;99.90;;;;;;5045208;28;20698;-69
2022/01/25 07:47:50;;;;;;;1.20;0.90;;;6.70;99.90;;;;;;5043188;28;20191;-69
2022/01/25 07:50:17;;;;;;;1.83;1.10;;;6.70;99.90;;;;;;5027623;28;20202;-69
2022/01/25 07:52:44;;;;;;;2.57;1.07;;;6.80;99.90;;;;;;5027492;28;20214;-69
2022/01/25 07:55:10;;;;;;;1.60;1.13;;;6.80;99.90;;;;;;5044288;28;20699;-69
2022/01/25 07:57:37;;;;;;;4.07;1.20;;;6.90;99.90;;;;;;5009700;28;20606;-69
2022/01/25 08:00:05;;;;;;;2.17;1.10;;;6.90;99.90;;;;;;5043941;28;20195;-69
2022/01/25 08:02:32;;;;;;;2.40;1.00;;;7.00;99.90;;;;;;5010940;28;20187;-69
2022/01/25 08:04:59;;;;;;;3.83;1.20;;;7.00;99.90;;;;;;5026896;28;20636;-69
2022/01/25 08:07:25;;;;;;;2.57;1.27;;;7.10;99.90;;;;;;5041687;28;20219;-69
2022/01/25 08:09:51;;;;;;;6.60;1.53;;;7.20;99.90;;;;;;5030334;28;20192;-69
2022/01/25 08:12:18;;;;;;;1.47;1.10;;;7.20;99.90;;;;;;5043009;28;20298;-69
2022/01/25 08:14:44;;;;;;;2.23;1.13;;;7.30;99.90;;;;;;5044563;28;20492;-69
2022/01/25 08:17:11;;;;;;;3.10;1.20;;;7.30;99.90;;;;;;5038419;28;20266;-69
2022/01/25 08:19:38;;;;;;;3.73;1.90;;;7.30;99.90;;;;;;5024118;28;20188;-69
2022/01/25 08:22:05;;;;;;;1.50;1.30;;;7.40;99.90;;;;;;5021203;28;20219;-69
2022/01/25 08:24:31;;;;;;;2.00;1.20;;;7.40;99.90;;;;;;5040278;28;20274;-69
2022/01/25 08:26:58;;;;;;;3.27;1.40;;;7.50;99.90;;;;;;5058189;28;20252;-68
2022/01/25 08:29:24;;;;;;;5.17;1.27;;;7.60;99.90;;;;;;5027999;28;20316;-68
2022/01/25 08:31:50;;;;;;;3.17;1.40;;;7.60;99.90;;;;;;5012880;28;20195;-69
2022/01/25 08:34:17;;;;;;;1.37;1.13;;;7.60;99.90;;;;;;5044581;28;20724;-69
2022/01/25 08:36:43;;;;;;;3.13;1.20;;;7.60;99.90;;;;;;5009997;28;20210;-69
2022/01/25 08:39:09;;;;;;;3.13;1.20;;;7.60;99.90;;;;;;5043108;28;20257;-69
2022/01/25 08:41:37;;;;;;;4.10;1.40;;;7.60;99.90;;;;;;5007237;28;20289;-69
2022/01/25 08:44:04;;;;;;;1.87;1.20;;;7.70;99.90;;;;;;5040920;28;20195;-69
2022/01/25 08:46:31;;;;;;;4.87;1.57;;;7.70;99.90;;;;;;5023436;28;20200;-69
2022/01/25 08:48:58;;;;;;;2.63;1.20;;;7.80;99.90;;;;;;5022422;28;20559;-69
2022/01/25 08:51:24;;;;;;;2.07;1.00;;;7.80;99.90;;;;;;5006084;28;20726;-69
2022/01/25 08:53:51;;;;;;;1.93;1.23;;;7.90;99.90;;;;;;5024925;28;21003;-69
2022/01/25 08:56:18;;;;;;;3.27;1.20;;;7.90;99.90;;;;;;5022396;28;20220;-70
2022/01/25 08:58:44;;;;;;;3.53;1.03;;;7.90;99.90;;;;;;5019093;28;20713;-70
2022/01/25 09:01:11;;;;;;;2.17;1.10;;;7.90;99.90;;;;;;5029651;28;20286;-70
2022/01/25 09:03:37;;;;;;;1.87;1.07;;;7.90;99.90;;;;;;5020343;28;20202;-70
2022/01/25 09:06:05;;;;;;;4.13;1.10;;;7.80;99.90;;;;;;5040937;28;20714;-70
2022/01/25 09:08:32;;;;;;;1.23;1.03;;;7.60;99.90;;;;;;5020855;28;20629;-70
2022/01/25 09:11:00;;;;;;;1.90;1.30;;;7.50;99.90;;;;;;5029632;28;20300;-70
2022/01/25 09:13:29;;;;;;;1.93;1.20;;;7.40;99.90;;;;;;5009719;28;20730;-70
2022/01/25 09:15:55;;;;;;;1.50;1.20;;;7.40;99.90;;;;;;5026920;28;20570;-70
2022/01/25 09:18:22;;;;;;;3.60;1.30;;;7.30;99.90;;;;;;5035335;28;20234;-70
2022/01/25 09:20:49;;;;;;;3.40;1.27;;;7.30;99.90;;;;;;5042806;28;20187;-70
2022/01/25 09:23:18;;;;;;;1.70;1.30;;;7.20;99.90;;;;;;5021778;28;20206;-70
2022/01/25 09:25:47;;;;;;;4.73;1.57;;;7.00;99.90;;;;;;5040403;28;20188;-70
2022/01/25 09:28:14;;;;;;;1.33;1.20;;;7.00;99.90;;;;;;5043217;28;20574;-70
2022/01/25 09:30:44;;;;;;;1.53;1.30;;;7.00;99.90;;;;;;5032324;28;20192;-70
2022/01/25 09:33:11;;;;;;;2.27;1.40;;;7.00;99.90;;;;;;5040433;28;20266;-70
2022/01/25 09:35:38;;;;;;;2.33;1.20;;;7.00;99.90;;;;;;5020920;28;20265;-70
2022/01/25 09:38:05;;;;;;;1.97;1.20;;;6.90;99.90;;;;;;5040804;28;20219;-70
2022/01/25 09:40:32;;;;;;;2.03;1.63;;;6.90;99.90;;;;;;5024871;28;20274;-70
2022/01/25 09:42:59;;;;;;;2.20;1.30;;;6.80;99.90;;;;;;5026346;28;20190;-70
2022/01/25 09:45:27;;;;;;;2.90;1.50;;;6.80;99.90;;;;;;5008115;28;20340;-70
2022/01/25 09:47:55;;;;;;;24.07;2.57;;;6.80;99.90;;;;;;5043412;28;20250;-69
2022/01/25 09:50:23;;;;;;;5.30;2.00;;;6.80;99.90;;;;;;5024610;28;20195;-69
2022/01/25 09:52:50;;;;;;;4.10;1.63;;;6.80;99.90;;;;;;5031640;28;20198;-69
2022/01/25 09:55:28;;;;;;;3.50;1.50;;;6.80;99.90;;;;;;5030257;28;20222;-69
2022/01/25 09:57:54;;;;;;;2.77;1.47;;;6.80;99.90;;;;;;5024297;28;20814;-69
2022/01/25 10:00:26;;;;;;;4.63;1.60;;;6.80;99.90;;;;;;5045922;28;20203;-69
2022/01/25 10:03:26;;;;;;;2.97;1.40;;;6.80;99.90;;;;;;5026600;28;20195;-70
2022/01/25 10:05:56;;;;;;;3.47;1.37;;;6.70;99.90;;;;;;5040742;28;21108;-69
2022/01/25 10:08:28;;;;;;;2.67;1.10;;;6.60;99.90;;;;;;5043405;28;20325;-69
2022/01/25 10:11:04;;;;;;;5.20;1.30;;;6.70;99.90;;;;;;5046951;28;20199;-69
2022/01/25 10:13:37;;;;;;;2.77;1.40;;;6.70;99.90;;;;;;5029600;28;20881;-69
2022/01/25 10:16:10;;;;;;;1.30;1.07;;;6.70;99.90;;;;;;5045442;28;20202;-69
2022/01/25 10:18:41;;;;;;;4.57;1.10;;;6.70;99.90;;;;;;5029410;28;20655;-69
2022/01/25 10:21:31;;;;;;;2.93;1.33;;;6.70;99.90;;;;;;5047105;28;20726;-69
2022/01/25 10:24:15;;;;;;;2.93;1.30;;;6.70;99.90;;;;;;5041777;28;20205;-70
2022/01/25 10:27:03;;;;;;;1.60;1.13;;;6.50;99.90;;;;;;5046294;28;20207;-69
2022/01/25 10:29:35;;;;;;;3.67;1.53;;;6.50;99.90;;;;;;5029646;28;20278;-69
2022/01/25 10:32:10;;;;;;;3.10;1.37;;;6.50;99.90;;;;;;5044185;28;20196;-69
2022/01/25 10:34:48;;;;;;;4.03;1.10;;;6.50;99.90;;;;;;5028567;28;20218;-69
2022/01/25 10:37:24;;;;;;;2.40;1.30;;;6.50;99.90;;;;;;5025402;28;20219;-70
2022/01/25 10:39:53;;;;;;;3.73;1.60;;;6.40;99.90;;;;;;5043940;28;20629;-69
2022/01/25 10:42:31;;;;;;;2.20;1.57;;;6.40;99.90;;;;;;5006921;28;20652;-69
2022/01/25 10:45:09;;;;;;;2.93;1.50;;;6.50;99.90;;;;;;5043542;28;20198;-69
2022/01/25 10:47:52;;;;;;;3.10;1.30;;;6.50;99.90;;;;;;5043463;28;20210;-70
2022/01/25 10:50:39;;;;;;;3.90;1.40;;;6.40;99.90;;;;;;5031648;28;20199;-70
2022/01/25 10:53:15;;;;;;;2.67;1.40;;;6.30;99.90;;;;;;5042826;28;20196;-70
2022/01/25 10:55:51;;;;;;;3.73;1.43;;;6.30;99.90;;;;;;5023639;28;20199;-70
2022/01/25 10:58:19;;;;;;;3.00;1.30;;;6.30;99.90;;;;;;5040217;28;20183;-70
2022/01/25 11:00:50;;;;;;;3.93;1.40;;;6.40;99.90;;;;;;5021674;28;20192;-70
2022/01/25 11:03:29;;;;;;;3.07;1.53;;;6.30;99.90;;;;;;5039837;28;20222;-70
2022/01/25 11:05:57;;;;;;;2.93;1.30;;;6.30;99.90;;;;;;5045942;28;20233;-70
2022/01/25 11:08:27;;;;;;;2.87;1.70;;;6.20;99.90;;;;;;5046474;28;20191;-70
2022/01/25 11:11:01;;;;;;;2.53;1.30;;;6.20;99.90;;;;;;5014049;28;20201;-69
2022/01/25 11:15:59;;;;;;;4.80;1.33;;;6.10;99.90;;;;;;5045414;28;20179;-69
2022/01/25 11:18:29;;;;;;;2.63;1.33;;;6.10;99.90;;;;;;5024963;28;21363;-69
2022/01/25 11:20:59;;;;;;;2.30;1.47;;;6.00;99.90;;;;;;5044443;28;20180;-70
2022/01/25 11:23:27;;;;;;;2.03;1.40;;;6.10;99.90;;;;;;5046345;28;20282;-70
2022/01/25 11:25:56;;;;;;;2.20;1.40;;;6.10;99.90;;;;;;5042528;28;20184;-70
2022/01/25 11:28:23;;;;;;;1.77;1.30;;;6.00;99.90;;;;;;5022376;28;20692;-70
2022/01/25 11:30:52;;;;;;;1.60;1.00;;;6.00;99.90;;;;;;5026799;28;20985;-70
2022/01/25 11:33:20;;;;;;;2.70;1.10;;;6.00;99.90;;;;;;5040808;28;20574;-70
2022/01/25 11:35:49;;;;;;;2.67;0.93;;;5.90;99.90;;;;;;5046229;28;20179;-70
2022/01/25 11:38:31;;;;;;;1.47;0.90;;;5.80;99.90;;;;;;5024545;28;20211;-70
2022/01/25 11:40:57;;;;;;;4.30;1.40;;;5.70;99.90;;;;;;5038502;28;20520;-70
2022/01/25 11:43:24;;;;;;;2.90;1.20;;;5.80;99.90;;;;;;5026857;28;20222;-69
2022/01/25 11:46:02;;;;;;;1.37;1.23;;;5.80;99.90;;;;;;5027140;28;20192;-68
2022/01/25 11:48:43;;;;;;;1.83;1.20;;;5.80;99.90;;;;;;5009938;28;20198;-69
2022/01/25 11:51:20;;;;;;;1.43;0.90;;;5.80;99.90;;;;;;5021434;28;20183;-69
2022/01/25 11:53:50;;;;;;;1.83;1.30;;;5.80;99.90;;;;;;5041351;28;20229;-67
2022/01/25 11:56:18;;;;;;;3.17;1.10;;;5.80;99.90;;;;;;5044699;28;20222;-68
2022/01/25 11:58:58;;;;;;;1.43;1.03;;;5.70;99.90;;;;;;5035772;28;20187;-71
2022/01/25 12:01:29;;;;;;;2.27;1.20;;;5.70;99.90;;;;;;5023472;28;20195;-70
2022/01/25 12:04:05;;;;;;;1.50;1.20;;;5.70;99.90;;;;;;5039983;28;20312;-69
2022/01/25 12:06:49;;;;;;;1.10;1.00;;;5.80;99.90;;;;;;5043053;28;20195;-70
2022/01/25 12:11:57;;;;;;;3.23;1.27;;;5.80;99.90;;;;;;5041422;28;20222;-69
2022/01/25 12:14:27;;;;;;;2.53;1.37;;;5.80;99.90;;;;;;5043141;28;20186;-70
2022/01/25 12:16:54;;;;;;;1.47;1.20;;;5.90;99.90;;;;;;5041740;28;20230;-69
2022/01/25 12:19:41;;;;;;;3.20;1.40;;;5.90;99.90;;;;;;5020508;28;20190;-69
2022/01/25 12:22:39;;;;;;;2.40;1.20;;;5.90;99.90;;;;;;5024990;28;20195;-70
2022/01/25 12:25:34;;;;;;;2.93;1.10;;;6.00;99.90;;;;;;5024311;28;20910;-69
2022/01/25 12:28:10;;;;;;;1.70;1.10;;;6.00;99.90;;;;;;5026824;28;20192;-69
2022/01/25 12:30:43;;;;;;;1.47;1.17;;;6.00;99.90;;;;;;5043830;28;20587;-69
2022/01/25 12:33:28;;;;;;;1.27;1.17;;;6.00;99.90;;;;;;5020889;28;20196;-69
2022/01/25 12:36:05;;;;;;;1.60;1.20;;;6.00;99.90;;;;;;5042580;28;20199;-69
2022/01/25 12:38:51;;;;;;;2.93;1.70;;;6.10;99.90;;;;;;5022965;28;20211;-69
2022/01/25 12:41:20;;;;;;;1.70;1.37;;;6.10;99.90;;;;;;5044567;28;20284;-69
2022/01/25 12:43:53;;;;;;;3.17;1.27;;;6.10;99.90;;;;;;5023168;28;20804;-69
2022/01/25 12:46:24;;;;;;;3.23;1.30;;;6.10;99.90;;;;;;5023965;28;20578;-69
2022/01/25 12:49:03;;;;;;;1.20;1.10;;;6.10;99.90;;;;;;5038441;28;20237;-69
2022/01/25 12:51:37;;;;;;;2.07;1.20;;;6.20;99.90;;;;;;5024588;28;20184;-69
2022/01/25 12:54:09;;;;;;;2.83;1.10;;;6.20;99.90;;;;;;5006801;28;20781;-69
2022/01/25 12:56:57;;;;;;;2.40;1.30;;;6.20;99.90;;;;;;5038289;28;20341;-69
2022/01/25 12:59:29;;;;;;;2.60;1.27;;;6.30;99.90;;;;;;5044194;28;20302;-69
2022/01/25 13:01:58;;;;;;;4.33;1.50;;;6.30;99.90;;;;;;5022073;28;20253;-69
2022/01/25 13:04:24;;;;;;;1.20;1.00;;;6.30;99.90;;;;;;5026590;28;20191;-69
2022/01/25 13:06:53;;;;;;;1.50;1.10;;;6.30;99.90;;;;;;5024733;28;20194;-69
2022/01/25 13:09:30;;;;;;;1.93;1.00;;;6.40;99.90;;;;;;5025027;28;20199;-69
2022/01/25 13:15:02;;;;;;;2.20;1.40;;;6.40;99.90;;;;;;5038547;28;20183;-69
2022/01/25 13:17:28;;;;;;;1.53;1.20;;;6.50;99.90;;;;;;5042768;28;20235;-69
2022/01/25 13:20:01;;;;;;;2.67;1.20;;;6.40;99.90;;;;;;5043952;28;20709;-69
2022/01/25 13:22:39;;;;;;;1.93;1.17;;;6.40;99.90;;;;;;5025437;28;20694;-69
2022/01/25 13:27:56;;;;;;;1.53;1.17;;;6.50;99.90;;;;;;5044755;28;20191;-69
2022/01/25 13:30:43;;;;;;;3.40;1.20;;;6.50;99.90;;;;;;5024305;28;20190;-69
2022/01/25 13:33:21;;;;;;;1.50;0.87;;;6.60;99.90;;;;;;5039790;28;20272;-69
2022/01/25 13:35:53;;;;;;;2.33;1.40;;;6.50;99.90;;;;;;5022011;28;20286;-69
2022/01/25 13:38:24;;;;;;;3.10;1.43;;;6.50;99.90;;;;;;5023003;28;20215;-69
2022/01/25 13:41:15;;;;;;;4.50;1.20;;;6.50;99.90;;;;;;5023755;28;20269;-69
2022/01/25 13:46:42;;;;;;;3.90;1.60;;;6.50;99.90;;;;;;5042463;28;20298;-69
2022/01/25 13:49:18;;;;;;;2.13;1.43;;;6.50;99.90;;;;;;5024387;28;20240;-69
2022/01/25 13:51:57;;;;;;;2.23;0.80;;;6.50;99.90;;;;;;5024136;28;20413;-69
2022/01/25 13:54:27;;;;;;;2.20;0.90;;;6.50;99.90;;;;;;5020517;28;20183;-68
2022/01/25 13:56:56;;;;;;;4.97;1.10;;;6.50;99.90;;;;;;5023354;28;20215;-69
2022/01/25 13:59:25;;;;;;;1.33;0.73;;;6.40;99.90;;;;;;5041172;28;20244;-69
2022/01/25 14:01:52;;;;;;;1.40;0.70;;;6.40;99.90;;;;;;5043893;28;20183;-69
2022/01/25 14:04:25;;;;;;;5.70;1.00;;;6.50;99.90;;;;;;5022813;28;20172;-69
2022/01/25 14:07:00;;;;;;;1.07;0.77;;;6.40;99.90;;;;;;5017049;28;20183;-69
2022/01/25 14:09:35;;;;;;;4.97;1.10;;;6.40;99.90;;;;;;5017643;28;20216;-69
2022/01/25 14:25:48;;;;;;;2.30;1.10;;;6.40;99.90;;;;;;5043684;28;20283;-69
2022/01/25 14:28:24;;;;;;;4.17;1.13;;;6.40;99.90;;;;;;5040590;28;20794;-69
2022/01/25 14:30:55;;;;;;;3.33;1.30;;;6.50;99.90;;;;;;5023311;28;20210;-69
2022/01/25 14:33:25;;;;;;;4.40;1.10;;;6.50;99.90;;;;;;5039934;28;20198;-69
2022/01/25 14:35:57;;;;;;;2.23;0.80;;;6.50;99.90;;;;;;5041449;28;20663;-69
2022/01/25 14:38:32;;;;;;;2.60;1.00;;;6.40;99.90;;;;;;5038149;28;20215;-69
2022/01/25 14:41:05;;;;;;;2.03;1.10;;;6.40;99.90;;;;;;5005633;28;20191;-69
2022/01/25 14:43:38;;;;;;;3.87;1.10;;;6.30;99.90;;;;;;5033884;28;20211;-69
2022/01/25 14:46:13;;;;;;;2.60;1.00;;;6.30;99.90;;;;;;5023702;28;20207;-69
2022/01/25 14:48:44;;;;;;;2.70;0.90;;;6.30;99.90;;;;;;5040216;28;20933;-69
2022/01/25 14:51:13;;;;;;;2.03;0.80;;;6.30;99.90;;;;;;5043038;28;20188;-69
2022/01/25 14:53:44;;;;;;;0.80;0.80;;;6.30;99.90;;;;;;5032387;28;20196;-69
2022/01/25 14:56:13;;;;;;;5.07;0.87;;;6.30;99.90;;;;;;5025098;28;20278;-69
2022/01/25 15:01:20;;;;;;;6.47;1.27;;;6.20;99.90;;;;;;5046906;28;20274;-69
2022/01/25 15:03:49;;;;;;;1.50;0.90;;;6.20;99.90;;;;;;5009755;28;20172;-69
2022/01/25 15:06:18;;;;;;;1.97;1.10;;;6.20;99.90;;;;;;5036230;28;20685;-69
2022/01/25 15:08:56;;;;;;;2.03;1.20;;;6.30;99.90;;;;;;5045927;28;20274;-69
2022/01/25 15:11:31;;;;;;;1.60;1.50;;;6.20;99.90;;;;;;5027579;28;20229;-69
2022/01/25 15:14:16;;;;;;;2.67;1.13;;;6.20;99.90;;;;;;5028098;28;20183;-69
2022/01/25 15:16:44;;;;;;;2.80;1.40;;;6.20;99.90;;;;;;5046051;28;20210;-69
2022/01/25 15:19:11;;;;;;;3.03;1.20;;;6.20;99.90;;;;;;5023966;28;20223;-69
2022/01/25 15:21:37;;;;;;;3.40;1.50;;;6.20;99.90;;;;;;5023537;28;20183;-70
2022/01/25 15:24:05;;;;;;;1.90;1.27;;;6.20;99.90;;;;;;5040261;28;20274;-69
2022/01/25 15:26:36;;;;;;;2.40;1.53;;;6.20;99.90;;;;;;5046945;28;20336;-69